Aeroporto :
LOGIN :

Iscrizione | Disclaimer

   EN    FR    IT 

 










Sommario :    VFR   VFR Marginale   IFR   IFR Intensivo   IFR Molto Intensivo
Visibilità : 
Base nubi : 
>= 8 km
>= 3000ft
5 / 8 km
1000 / 3000 ft
1500m / 5 km
500 / 1000 ft
800 / 1500m
200 / 500 ft
< 800m
< 200 ft
Simboli :   Temporali  Nebbia  Neve Forte  Precipitazioni Forti  Vento > 20 kt
SIGMETs :   Varie  Temporali  Ghiacco  Turbolenza  Onda orograficha  Ceneri Vulcaniche







- Altitudine del aeroporto : 287 ft
- Carte del aeroporto


LFRL - Lanveoc Poulmic

ULTIMO METAR :
  • 210400Z AUTO 30014KT 9999 FEW037 BKN049 13/09 Q1012

METARs OBSOLETI :
  • 210330Z AUTO 29013KT CAVOK 13/09 Q1012
  • 210300Z AUTO 30013KT 9999 FEW026 SCT041 BKN047 14/10 Q1011
  • 210230Z AUTO 29015KT 9999 FEW041 14/09 Q1011
  • 210200Z AUTO 29014KT 9999 SCT031 BKN044 BKN050 15/10 Q1010
  • 210130Z AUTO 28018KT 9999 FEW031 BKN200 BKN250 15/10 Q1010

TAF TAF LFRL
Valido dal 20 a 12 ore il 21 a 12 ore UTC


201100Z 2012/2112 20015G28KT 9999 SCT015 BKN033
BECMG 2018/2020 OVC010
BECMG 2021/2022 24020G40KT OVC008
TEMPO 2021/2023 2000 RA BKN004
BECMG 2103/2105 30015G25KT BKN025
BECMG 2109/2111 CAVOK
Nessun NOTAM noto per questo aeroporto.
1 SIGMET conosciuto per la FIR Brest (LFRR) :
 
Turbolenza severa
LFRR SIGMET 1 VALID 210100/210500 LFPW
LFRR BREST FIR/UIR SEV TURB FCST WI N4945 W00400 - N5000 W00200 - N5000 W00015 - N4845 W00015 - N4700 W00300 - N4800 W00545 - N4945 W00400 SFC/FL060 MOV E 20KT NC=



MetMap, La meteo Aeronautica in un colpo d'occhio ! - Copyright ORBIFLY Dicembre 2007 - Disclaimer

ORBIFLY MET'MAP TEAM :

Programmazione e sviluppo : Alexandra Zaïnal
Concezione e sviluppo : Baudouin d'Aumeries
Co-Programmazione e sviluppo : Marc-Olivier Méhu
Supporto tecnico e logistico : Manuel Goepfert
Aiuto per la traduzione : Arnaldo La Scala

Contatto : metmap@orbifly.com




FONTI E CREDITI :

   NOAA